Time;durP1;ratioP1;P1;durP2;ratioP2;P2;SDS_P1;SDS_P2;PMS_P1;PMS_P2;Temp;Humidity;BMP_temperature;BMP_pressure;BME280_temperature;BME280_humidity;BME280_pressure;Samples;Min_cycle;Max_cycle;Signal;HPM_P1;HPM_P2
2021/07/16 00:00:22;;;;;;;16.77;14.87;;;19.00;99.90;;;;;;5034090;28;20460;-68
2021/07/16 00:02:53;;;;;;;16.57;14.70;;;19.00;99.90;;;;;;5034067;28;20449;-68
2021/07/16 00:05:20;;;;;;;20.93;16.37;;;19.00;99.90;;;;;;5034092;28;20453;-68
2021/07/16 00:07:47;;;;;;;16.67;15.17;;;18.90;99.90;;;;;;5034095;28;20552;-68
2021/07/16 00:10:16;;;;;;;16.63;15.33;;;18.90;99.90;;;;;;5033834;28;20970;-68
2021/07/16 00:12:43;;;;;;;17.47;14.40;;;18.90;99.90;;;;;;5033881;28;20449;-68
2021/07/16 00:15:12;;;;;;;17.37;15.73;;;18.90;99.90;;;;;;5034031;28;20441;-68
2021/07/16 00:17:41;;;;;;;19.43;16.90;;;18.90;99.90;;;;;;5033857;28;20445;-68
2021/07/16 00:20:10;;;;;;;16.80;15.07;;;18.90;99.90;;;;;;5033862;28;20481;-68
2021/07/16 00:22:37;;;;;;;17.83;14.97;;;18.90;99.90;;;;;;5033591;28;20777;-68
2021/07/16 00:25:04;;;;;;;16.50;14.90;;;18.90;99.90;;;;;;5033674;28;20962;-68
2021/07/16 00:27:31;;;;;;;17.40;15.77;;;18.90;99.90;;;;;;5033386;28;20445;-68
2021/07/16 00:29:58;;;;;;;18.53;16.73;;;18.80;99.90;;;;;;5033756;28;21012;-67
2021/07/16 00:32:24;;;;;;;20.80;18.63;;;18.80;99.90;;;;;;5033468;28;21044;-67
2021/07/16 00:34:52;;;;;;;20.63;16.30;;;18.80;99.90;;;;;;5033670;28;20451;-68
2021/07/16 00:37:19;;;;;;;17.90;15.20;;;18.80;99.90;;;;;;5033496;28;20445;-67
2021/07/16 00:39:46;;;;;;;27.57;15.73;;;18.80;99.90;;;;;;5033402;28;20461;-67
2021/07/16 00:42:12;;;;;;;20.50;14.23;;;18.80;99.90;;;;;;5033310;28;20926;-67
2021/07/16 00:44:39;;;;;;;16.47;14.80;;;18.70;99.90;;;;;;5033464;28;20812;-67
2021/07/16 00:47:07;;;;;;;16.53;14.07;;;18.70;99.90;;;;;;5033290;28;20448;-67
2021/07/16 00:49:34;;;;;;;15.23;13.70;;;18.70;99.90;;;;;;5033277;28;20473;-67
2021/07/16 00:52:02;;;;;;;20.23;15.50;;;18.70;99.90;;;;;;5032854;28;20477;-67
2021/07/16 00:54:29;;;;;;;17.63;14.03;;;18.70;99.90;;;;;;5033146;28;20956;-67
2021/07/16 00:56:56;;;;;;;22.83;14.27;;;18.70;99.90;;;;;;5033143;28;20449;-68
2021/07/16 00:59:25;;;;;;;13.50;12.33;;;18.60;99.90;;;;;;5032911;28;20465;-68
2021/07/16 01:01:54;;;;;;;14.93;13.20;;;18.60;99.90;;;;;;5032821;28;20447;-67
2021/07/16 01:04:21;;;;;;;15.53;14.13;;;18.50;99.90;;;;;;5032980;28;20452;-67
2021/07/16 01:06:48;;;;;;;16.00;13.60;;;18.50;99.90;;;;;;5032912;28;20468;-67
2021/07/16 01:09:16;;;;;;;22.67;14.97;;;18.50;99.90;;;;;;5033113;28;20488;-67
2021/07/16 01:11:42;;;;;;;16.30;14.57;;;18.50;99.90;;;;;;5032529;28;20488;-67
2021/07/16 01:14:11;;;;;;;14.90;13.50;;;18.50;99.90;;;;;;5032818;28;20441;-67
2021/07/16 01:16:38;;;;;;;14.57;13.30;;;18.50;99.90;;;;;;5032793;28;20460;-67
2021/07/16 01:19:06;;;;;;;16.83;14.63;;;18.50;99.90;;;;;;5032590;28;20963;-67
2021/07/16 01:21:34;;;;;;;14.77;13.47;;;18.40;99.90;;;;;;5032532;28;20441;-68
2021/07/16 01:24:06;;;;;;;19.43;14.20;;;18.40;99.90;;;;;;5032707;28;20448;-67
2021/07/16 01:26:35;;;;;;;16.43;14.80;;;18.40;99.90;;;;;;5032851;28;20475;-68
2021/07/16 01:29:03;;;;;;;19.57;15.70;;;18.40;99.90;;;;;;5032220;28;20571;-67
2021/07/16 01:31:30;;;;;;;18.07;15.93;;;18.40;99.90;;;;;;5032443;28;20894;-67
2021/07/16 01:33:58;;;;;;;17.90;15.77;;;18.40;99.90;;;;;;5032389;28;20445;-67
2021/07/16 01:36:25;;;;;;;18.97;17.10;;;18.40;99.90;;;;;;5032437;28;20454;-67
2021/07/16 01:38:52;;;;;;;18.33;16.43;;;18.40;99.90;;;;;;5031608;28;20441;-67
2021/07/16 01:41:20;;;;;;;22.40;18.33;;;18.30;99.90;;;;;;5032066;28;20453;-67
2021/07/16 01:43:46;;;;;;;20.33;17.80;;;18.20;99.90;;;;;;5032108;28;20449;-67
2021/07/16 01:46:13;;;;;;;23.50;18.47;;;18.20;99.90;;;;;;5032419;28;20837;-67
2021/07/16 01:48:40;;;;;;;21.23;17.07;;;18.10;99.90;;;;;;5032055;28;20452;-67
2021/07/16 01:51:06;;;;;;;21.43;18.87;;;18.10;99.90;;;;;;5031789;28;20484;-67
2021/07/16 01:53:34;;;;;;;22.20;18.70;;;18.10;99.90;;;;;;5032116;28;20441;-67
2021/07/16 01:56:01;;;;;;;21.10;18.63;;;18.10;99.90;;;;;;5032058;28;20449;-67
2021/07/16 01:58:29;;;;;;;19.20;15.70;;;18.10;99.90;;;;;;5032052;28;20448;-67
2021/07/16 02:00:55;;;;;;;15.43;13.93;;;18.10;99.90;;;;;;5031879;28;20465;-68
2021/07/16 02:03:22;;;;;;;16.53;14.77;;;18.10;99.90;;;;;;5031811;28;20464;-68
2021/07/16 02:05:49;;;;;;;16.73;14.97;;;18.10;99.90;;;;;;5032106;28;20441;-67
2021/07/16 02:08:18;;;;;;;19.37;15.07;;;18.10;99.90;;;;;;5031959;28;20449;-67
2021/07/16 02:10:46;;;;;;;16.33;14.73;;;18.10;99.90;;;;;;5031703;28;20481;-67
2021/07/16 02:13:13;;;;;;;16.97;14.40;;;18.10;99.90;;;;;;5031610;28;20448;-67
2021/07/16 02:15:43;;;;;;;26.87;15.63;;;18.10;99.90;;;;;;5031794;28;20503;-67
2021/07/16 02:18:10;;;;;;;16.70;13.43;;;18.10;99.90;;;;;;5031768;28;20441;-67
2021/07/16 02:20:39;;;;;;;14.77;13.40;;;18.10;99.90;;;;;;5031658;28;20825;-68
2021/07/16 02:23:08;;;;;;;15.00;13.50;;;18.10;99.90;;;;;;5031452;28;20441;-68
2021/07/16 02:25:35;;;;;;;14.70;13.50;;;18.10;99.90;;;;;;5031593;28;20957;-68
2021/07/16 02:28:06;;;;;;;18.10;13.67;;;18.10;99.90;;;;;;5031686;28;20440;-67
2021/07/16 02:30:33;;;;;;;14.37;12.97;;;18.10;99.90;;;;;;5031455;28;20473;-67
2021/07/16 02:33:01;;;;;;;15.20;13.77;;;18.10;99.90;;;;;;5031349;28;20810;-67
2021/07/16 02:35:30;;;;;;;15.20;13.60;;;18.10;99.90;;;;;;5031594;28;20453;-67
2021/07/16 02:37:57;;;;;;;15.57;14.03;;;18.10;99.90;;;;;;5031490;28;20499;-68
2021/07/16 02:40:23;;;;;;;24.73;14.03;;;18.10;99.90;;;;;;5031417;28;20465;-68
2021/07/16 02:42:50;;;;;;;17.73;15.77;;;18.10;99.90;;;;;;5031406;28;20444;-67
2021/07/16 02:45:19;;;;;;;15.07;13.67;;;18.00;99.90;;;;;;5031533;28;20449;-67
2021/07/16 02:47:46;;;;;;;19.07;16.83;;;18.00;99.90;;;;;;5031389;28;20448;-67
2021/07/16 02:50:16;;;;;;;21.00;15.63;;;18.00;99.90;;;;;;5032179;28;20464;-67
2021/07/16 02:52:43;;;;;;;16.13;14.57;;;18.00;99.90;;;;;;5035194;28;20481;-67
2021/07/16 02:55:11;;;;;;;20.63;17.73;;;18.10;99.90;;;;;;5035422;28;20938;-67
2021/07/16 02:57:38;;;;;;;18.03;15.97;;;18.10;99.90;;;;;;5035257;28;20457;-68
2021/07/16 03:00:08;;;;;;;19.13;16.30;;;18.10;99.90;;;;;;5035232;28;20845;-67
2021/07/16 03:02:39;;;;;;;20.50;18.23;;;18.10;99.90;;;;;;5035251;28;20448;-67
2021/07/16 03:05:07;;;;;;;21.00;18.27;;;18.10;99.90;;;;;;5035279;28;20484;-68
2021/07/16 03:07:35;;;;;;;21.53;18.90;;;18.00;99.90;;;;;;5035141;28;20441;-67
2021/07/16 03:10:01;;;;;;;20.10;18.20;;;18.00;99.90;;;;;;5035118;28;20857;-67
2021/07/16 03:12:28;;;;;;;25.03;19.73;;;18.00;99.90;;;;;;5034876;28;20858;-67
2021/07/16 03:14:55;;;;;;;19.77;17.87;;;17.90;99.90;;;;;;5035040;28;20445;-67
2021/07/16 03:17:21;;;;;;;20.90;18.67;;;17.90;99.90;;;;;;5035193;28;20448;-67
2021/07/16 03:19:48;;;;;;;20.80;18.67;;;17.90;99.90;;;;;;5034923;28;20520;-67
2021/07/16 03:22:15;;;;;;;21.17;18.13;;;17.90;99.90;;;;;;5034805;28;20444;-67
2021/07/16 03:24:43;;;;;;;27.73;18.97;;;17.80;99.90;;;;;;5034765;28;20856;-67
2021/07/16 03:27:09;;;;;;;19.43;17.43;;;17.80;99.90;;;;;;5034866;28;20449;-67
2021/07/16 03:29:36;;;;;;;22.30;17.70;;;17.80;99.90;;;;;;5034640;28;20483;-67
2021/07/16 03:32:03;;;;;;;21.17;18.83;;;17.80;99.90;;;;;;5034504;28;20507;-67
2021/07/16 03:34:30;;;;;;;20.10;18.23;;;17.80;99.90;;;;;;5034628;28;20452;-67
2021/07/16 03:36:56;;;;;;;19.77;17.23;;;17.80;99.90;;;;;;5034745;28;20445;-68
2021/07/16 03:39:23;;;;;;;23.13;19.10;;;17.80;99.90;;;;;;5034588;28;20464;-67
2021/07/16 03:41:51;;;;;;;18.17;16.27;;;17.70;99.90;;;;;;5034358;28;20448;-67
2021/07/16 03:44:17;;;;;;;20.07;17.93;;;17.70;99.90;;;;;;5034486;28;20456;-67
2021/07/16 03:46:44;;;;;;;19.00;17.20;;;17.70;99.90;;;;;;5034393;28;20443;-67
2021/07/16 03:49:11;;;;;;;17.57;16.17;;;17.70;99.90;;;;;;5034490;28;20457;-67
2021/07/16 03:51:37;;;;;;;17.77;16.13;;;17.70;99.90;;;;;;5034102;28;20997;-67
2021/07/16 03:54:05;;;;;;;19.10;16.70;;;17.70;99.90;;;;;;5034418;28;20444;-67
2021/07/16 03:56:31;;;;;;;17.97;16.13;;;17.80;99.90;;;;;;5034325;28;20514;-67
2021/07/16 03:58:59;;;;;;;17.00;15.13;;;17.70;99.90;;;;;;5034090;28;20476;-68
2021/07/16 04:01:26;;;;;;;17.97;16.17;;;17.70;99.90;;;;;;5033565;28;20449;-67
2021/07/16 04:03:53;;;;;;;15.87;14.67;;;17.70;99.90;;;;;;5033870;28;20495;-67
2021/07/16 04:06:20;;;;;;;18.23;16.50;;;17.70;99.90;;;;;;5034280;28;20445;-67
2021/07/16 04:08:49;;;;;;;17.93;16.33;;;17.70;99.90;;;;;;5033985;28;20453;-67
2021/07/16 04:11:16;;;;;;;17.13;15.40;;;17.60;99.90;;;;;;5033793;28;20946;-67
2021/07/16 04:13:43;;;;;;;17.40;15.80;;;17.60;99.90;;;;;;5033862;28;20874;-67
2021/07/16 04:16:11;;;;;;;18.67;17.07;;;17.60;99.90;;;;;;5033958;28;20468;-67
2021/07/16 04:18:37;;;;;;;18.80;16.43;;;17.60;99.90;;;;;;5033729;28;20433;-67
2021/07/16 04:21:04;;;;;;;16.97;15.47;;;17.60;99.90;;;;;;5033638;28;20488;-67
2021/07/16 04:23:31;;;;;;;23.80;16.30;;;17.50;99.90;;;;;;5033882;28;20448;-67
2021/07/16 04:25:57;;;;;;;19.27;17.53;;;17.50;99.90;;;;;;5033768;28;20441;-67
2021/07/16 04:28:24;;;;;;;18.17;16.80;;;17.50;99.90;;;;;;5033805;28;20456;-67
2021/07/16 04:30:51;;;;;;;19.17;17.47;;;17.50;99.90;;;;;;5033506;28;20472;-67
2021/07/16 04:33:19;;;;;;;17.83;15.47;;;17.50;99.90;;;;;;5033395;28;20492;-67
2021/07/16 04:35:46;;;;;;;18.97;15.30;;;17.50;99.90;;;;;;5033551;28;20923;-67
2021/07/16 04:38:13;;;;;;;19.13;17.33;;;17.40;99.90;;;;;;5033518;28;20437;-67
2021/07/16 04:40:39;;;;;;;19.17;17.30;;;17.40;99.90;;;;;;5033380;28;20465;-67
2021/07/16 04:43:06;;;;;;;20.47;17.40;;;17.40;99.90;;;;;;5033223;28;20448;-68
2021/07/16 04:45:37;;;;;;;17.03;15.47;;;17.40;99.90;;;;;;5033488;28;20464;-67
2021/07/16 04:48:05;;;;;;;19.13;16.13;;;17.40;99.90;;;;;;5033449;28;20448;-67
2021/07/16 04:50:34;;;;;;;17.57;15.77;;;17.40;99.90;;;;;;5033285;28;20465;-67
2021/07/16 04:53:01;;;;;;;18.20;16.50;;;17.50;99.90;;;;;;5032859;28;21041;-67
2021/07/16 04:55:28;;;;;;;17.83;16.43;;;17.50;99.90;;;;;;5033151;28;20507;-67
2021/07/16 04:57:54;;;;;;;18.30;16.67;;;17.50;99.90;;;;;;5033254;28;20931;-67
2021/07/16 05:00:22;;;;;;;18.70;16.90;;;17.60;99.90;;;;;;5032997;28;20472;-67
2021/07/16 05:02:49;;;;;;;20.10;18.23;;;17.60;99.90;;;;;;5032774;28;20453;-68
2021/07/16 05:05:16;;;;;;;18.77;16.97;;;17.60;99.90;;;;;;5033031;28;20445;-67
2021/07/16 05:07:44;;;;;;;19.40;17.57;;;17.60;99.90;;;;;;5032936;28;20452;-67
2021/07/16 05:10:12;;;;;;;20.50;17.10;;;17.60;99.90;;;;;;5032731;28;20488;-67
2021/07/16 05:12:40;;;;;;;22.33;20.20;;;17.60;99.90;;;;;;5032531;28;20838;-67
2021/07/16 05:15:08;;;;;;;21.33;19.43;;;17.60;99.90;;;;;;5031778;28;20476;-67
2021/07/16 05:17:34;;;;;;;23.17;21.17;;;17.60;99.90;;;;;;5032912;28;20452;-67
2021/07/16 05:20:01;;;;;;;21.60;19.53;;;17.60;99.90;;;;;;5032718;28;20476;-67
2021/07/16 05:22:28;;;;;;;22.77;20.00;;;17.60;99.90;;;;;;5032377;28;20467;-67
2021/07/16 05:24:56;;;;;;;24.90;20.60;;;17.60;99.90;;;;;;5032659;28;20441;-68
2021/07/16 05:27:23;;;;;;;23.93;19.53;;;17.50;99.90;;;;;;5032712;28;20452;-68
2021/07/16 05:29:50;;;;;;;21.60;19.67;;;17.60;99.90;;;;;;5032339;28;20473;-67
2021/07/16 05:32:17;;;;;;;20.90;16.23;;;17.50;99.90;;;;;;5032196;28;20485;-67
2021/07/16 05:34:43;;;;;;;19.73;17.90;;;17.50;99.90;;;;;;5032419;28;20457;-67
2021/07/16 05:37:10;;;;;;;21.33;19.53;;;17.50;99.90;;;;;;5032384;28;20452;-67
2021/07/16 05:39:37;;;;;;;18.90;17.10;;;17.50;99.90;;;;;;5032219;28;20488;-67
2021/07/16 05:42:06;;;;;;;23.70;21.03;;;17.50;99.90;;;;;;5032108;28;20843;-67
2021/07/16 05:44:33;;;;;;;22.60;20.10;;;17.60;99.90;;;;;;5032417;28;20787;-67
2021/07/16 05:47:00;;;;;;;19.80;17.90;;;17.50;99.90;;;;;;5032372;28;20914;-67
2021/07/16 05:49:27;;;;;;;23.10;20.77;;;17.50;99.90;;;;;;5032107;28;20982;-67
2021/07/16 05:51:53;;;;;;;22.00;19.80;;;17.50;99.90;;;;;;5031653;28;20476;-67
2021/07/16 05:54:20;;;;;;;21.30;19.50;;;17.50;99.90;;;;;;5032036;28;20449;-67
2021/07/16 05:56:47;;;;;;;23.87;20.23;;;17.50;99.90;;;;;;5032027;28;20440;-67
2021/07/16 05:59:15;;;;;;;23.20;20.70;;;17.40;99.90;;;;;;5031989;28;20873;-68
2021/07/16 06:01:41;;;;;;;21.60;19.27;;;17.40;99.90;;;;;;5032010;28;20448;-67
2021/07/16 06:04:11;;;;;;;21.73;19.53;;;17.40;99.90;;;;;;5032032;28;20923;-67
2021/07/16 06:06:38;;;;;;;22.30;19.50;;;17.40;99.90;;;;;;5031772;28;20456;-67
2021/07/16 06:09:06;;;;;;;22.70;19.50;;;17.40;99.90;;;;;;5031786;28;20465;-67
2021/07/16 06:11:33;;;;;;;24.47;21.67;;;17.40;99.90;;;;;;5031743;28;20448;-67
2021/07/16 06:14:00;;;;;;;22.40;20.50;;;17.40;99.90;;;;;;5031693;28;20488;-67
2021/07/16 06:16:28;;;;;;;28.27;25.47;;;17.50;99.90;;;;;;5031793;28;20441;-68
2021/07/16 06:18:55;;;;;;;30.47;25.50;;;17.40;99.90;;;;;;5031639;28;20471;-67
2021/07/16 06:21:21;;;;;;;26.77;24.13;;;17.40;99.90;;;;;;5031459;28;20499;-67
2021/07/16 06:23:48;;;;;;;31.60;24.37;;;17.50;99.90;;;;;;5031633;28;20445;-67
2021/07/16 06:26:15;;;;;;;28.03;25.40;;;17.60;99.90;;;;;;5031270;28;20449;-68
2021/07/16 06:28:42;;;;;;;26.77;24.13;;;17.60;99.90;;;;;;5031368;28;20445;-67
2021/07/16 06:31:08;;;;;;;27.23;24.20;;;17.70;99.90;;;;;;5032014;28;20452;-68
2021/07/16 06:33:36;;;;;;;34.67;27.43;;;17.80;99.90;;;;;;5031453;28;20477;-68
2021/07/16 06:36:03;;;;;;;28.63;25.77;;;17.80;99.90;;;;;;5031485;28;20839;-68
2021/07/16 06:38:30;;;;;;;32.13;29.00;;;17.80;99.90;;;;;;5031551;28;20448;-68
2021/07/16 06:40:57;;;;;;;29.40;26.80;;;17.90;99.90;;;;;;5031374;28;20844;-68
2021/07/16 06:43:24;;;;;;;27.53;25.13;;;18.00;99.90;;;;;;5031224;28;20970;-68
2021/07/16 06:45:50;;;;;;;29.37;26.80;;;18.00;99.90;;;;;;5031367;28;20441;-68
2021/07/16 06:48:17;;;;;;;26.87;24.33;;;18.10;99.90;;;;;;5031393;28;20452;-68
2021/07/16 06:50:45;;;;;;;26.63;24.10;;;18.20;99.90;;;;;;5031108;28;20515;-68
2021/07/16 06:53:12;;;;;;;28.63;25.73;;;18.00;99.90;;;;;;5031069;28;20477;-68
2021/07/16 06:55:38;;;;;;;25.43;23.23;;;18.20;99.90;;;;;;5031440;28;20444;-68
2021/07/16 06:58:05;;;;;;;26.07;23.57;;;18.10;99.90;;;;;;5031255;28;20854;-68
2021/07/16 07:00:34;;;;;;;27.73;24.80;;;17.90;99.90;;;;;;5031339;28;20806;-68
2021/07/16 07:03:01;;;;;;;25.93;23.53;;;17.90;99.90;;;;;;5030972;28;20449;-68
2021/07/16 07:05:28;;;;;;;28.10;25.43;;;17.80;99.90;;;;;;5031238;28;20935;-68
2021/07/16 07:07:56;;;;;;;28.37;25.60;;;17.80;99.90;;;;;;5031279;28;20516;-68
2021/07/16 07:10:22;;;;;;;31.30;27.83;;;17.90;99.90;;;;;;5031237;28;20909;-68
2021/07/16 07:12:49;;;;;;;27.73;24.80;;;17.80;99.90;;;;;;5030873;28;20492;-68
2021/07/16 07:15:16;;;;;;;28.73;26.03;;;17.70;99.90;;;;;;5031082;28;20452;-68
2021/07/16 07:17:43;;;;;;;19.40;16.90;;;17.70;99.90;;;;;;5031203;28;20440;-68
2021/07/16 07:20:11;;;;;;;23.90;21.67;;;17.50;99.90;;;;;;5031009;28;20560;-68
2021/07/16 07:22:38;;;;;;;30.10;25.13;;;17.60;99.90;;;;;;5030821;28;20503;-68
2021/07/16 07:25:07;;;;;;;28.90;25.87;;;17.70;99.90;;;;;;5030912;28;20882;-68
2021/07/16 07:27:34;;;;;;;29.50;26.70;;;17.70;99.90;;;;;;5030921;28;20449;-68
2021/07/16 07:30:01;;;;;;;32.67;29.47;;;17.80;99.90;;;;;;5030704;28;20481;-68
2021/07/16 07:32:28;;;;;;;34.23;30.80;;;17.80;99.90;;;;;;5030722;28;20488;-67
2021/07/16 07:34:54;;;;;;;32.73;29.53;;;17.80;99.90;;;;;;5030887;28;20934;-67
2021/07/16 07:37:21;;;;;;;31.23;27.73;;;17.90;99.90;;;;;;5032048;28;20823;-68
2021/07/16 07:39:48;;;;;;;30.83;28.03;;;17.90;99.90;;;;;;5034613;28;20883;-68
2021/07/16 07:42:17;;;;;;;30.97;28.07;;;18.00;99.90;;;;;;5034531;28;20452;-68
2021/07/16 07:44:44;;;;;;;32.47;29.67;;;18.00;99.90;;;;;;5034506;28;21034;-68
2021/07/16 07:47:11;;;;;;;30.87;28.27;;;18.00;99.90;;;;;;5034447;28;20931;-68
2021/07/16 07:49:38;;;;;;;31.20;28.60;;;18.10;99.90;;;;;;5034251;28;20456;-68
2021/07/16 07:52:06;;;;;;;29.40;26.70;;;18.40;99.90;;;;;;5034135;28;20455;-68
2021/07/16 07:54:33;;;;;;;28.27;25.53;;;18.50;99.90;;;;;;5034250;28;21001;-68
2021/07/16 07:57:00;;;;;;;27.90;25.00;;;18.40;99.90;;;;;;5034346;28;20441;-68
2021/07/16 07:59:28;;;;;;;27.60;24.77;;;18.40;99.90;;;;;;5034292;28;20468;-68
2021/07/16 08:01:55;;;;;;;28.30;25.70;;;18.40;99.90;;;;;;5033989;28;20449;-68
2021/07/16 08:04:21;;;;;;;26.27;24.20;;;18.60;99.90;;;;;;5034055;28;20437;-68
2021/07/16 08:06:48;;;;;;;27.60;24.80;;;18.90;99.90;;;;;;5034056;28;20516;-68
2021/07/16 08:09:15;;;;;;;29.50;26.90;;;19.00;99.90;;;;;;5033980;28;20975;-68
2021/07/16 08:11:42;;;;;;;28.73;26.00;;;18.90;99.90;;;;;;5033722;28;20449;-68
2021/07/16 08:14:09;;;;;;;30.87;27.87;;;18.90;99.90;;;;;;5033888;28;20512;-68
2021/07/16 08:16:37;;;;;;;29.00;26.53;;;19.00;99.90;;;;;;5033913;28;20448;-68
2021/07/16 08:19:03;;;;;;;29.37;26.97;;;19.20;99.90;;;;;;5033799;28;20473;-68
2021/07/16 08:21:30;;;;;;;28.50;25.93;;;19.50;99.90;;;;;;5033589;28;20448;-68
2021/07/16 08:23:57;;;;;;;28.17;25.83;;;19.90;99.90;;;;;;5033744;28;20441;-68
2021/07/16 08:26:23;;;;;;;29.27;26.67;;;19.80;99.90;;;;;;5033790;28;20506;-68
2021/07/16 08:28:50;;;;;;;31.20;28.70;;;19.80;99.90;;;;;;5033556;28;20443;-68
2021/07/16 08:31:17;;;;;;;29.40;27.00;;;19.80;99.90;;;;;;5033520;28;20449;-68
2021/07/16 08:33:45;;;;;;;29.17;26.77;;;19.80;99.90;;;;;;5033444;28;20480;-68
2021/07/16 08:36:11;;;;;;;28.00;25.70;;;20.10;99.90;;;;;;5033628;28;20449;-68
2021/07/16 08:38:38;;;;;;;29.10;26.60;;;19.90;99.90;;;;;;5033499;28;20450;-68
2021/07/16 08:41:05;;;;;;;30.10;27.67;;;20.10;99.90;;;;;;5033310;28;20453;-68
2021/07/16 08:43:35;;;;;;;27.70;25.17;;;20.20;99.90;;;;;;5033556;28;20455;-68
2021/07/16 08:46:02;;;;;;;30.20;27.10;;;20.20;99.90;;;;;;5033515;28;21038;-68
2021/07/16 08:48:31;;;;;;;25.57;23.87;;;20.00;99.90;;;;;;5033037;28;20476;-68
2021/07/16 08:51:00;;;;;;;27.80;25.70;;;20.20;99.90;;;;;;5033258;28;20501;-68
2021/07/16 08:53:28;;;;;;;26.17;23.97;;;20.10;99.90;;;;;;5032986;28;20512;-68
2021/07/16 08:55:55;;;;;;;26.90;24.67;;;20.50;99.90;;;;;;5033206;28;20821;-68
2021/07/16 08:58:22;;;;;;;27.33;24.97;;;20.80;99.90;;;;;;5033166;28;20455;-68
2021/07/16 09:00:49;;;;;;;26.60;24.40;;;20.80;99.90;;;;;;5033160;28;20984;-68
2021/07/16 09:03:16;;;;;;;26.87;24.63;;;21.00;99.90;;;;;;5032830;28;20472;-68
2021/07/16 09:05:44;;;;;;;28.73;26.50;;;20.80;99.90;;;;;;5033022;28;20460;-68
2021/07/16 09:08:17;;;;;;;27.90;25.30;;;20.80;99.90;;;;;;5032996;28;20445;-68
2021/07/16 09:10:49;;;;;;;28.50;26.47;;;20.80;99.90;;;;;;5032802;28;20847;-68
2021/07/16 09:13:16;;;;;;;31.47;29.10;;;20.60;99.90;;;;;;5032630;28;20481;-68
2021/07/16 09:15:49;;;;;;;30.73;28.00;;;20.60;99.90;;;;;;5032722;28;20452;-68
2021/07/16 09:18:22;;;;;;;28.80;26.70;;;20.50;99.90;;;;;;5032671;28;20503;-68
2021/07/16 09:20:49;;;;;;;27.53;25.27;;;20.60;99.90;;;;;;5032636;28;20517;-68
2021/07/16 09:23:19;;;;;;;27.50;25.57;;;20.20;99.90;;;;;;5032401;28;20442;-68
2021/07/16 09:26:01;;;;;;;26.60;24.63;;;20.00;99.90;;;;;;5032689;28;20448;-68
2021/07/16 09:28:28;;;;;;;32.13;29.33;;;20.00;99.90;;;;;;5032525;28;20441;-68
2021/07/16 09:31:11;;;;;;;34.80;30.93;;;19.70;99.90;;;;;;5032440;28;20481;-68
2021/07/16 09:33:46;;;;;;;28.13;26.00;;;19.70;99.90;;;;;;5032387;28;20827;-68
2021/07/16 09:36:23;;;;;;;25.03;23.27;;;19.80;99.90;;;;;;5032438;28;20854;-68
2021/07/16 09:38:52;;;;;;;26.17;24.07;;;19.80;99.90;;;;;;5032348;28;20450;-68
2021/07/16 09:41:19;;;;;;;23.63;22.10;;;20.00;99.90;;;;;;5032128;28;20441;-68
2021/07/16 09:43:50;;;;;;;24.67;22.43;;;20.20;99.90;;;;;;5032218;28;20791;-68
2021/07/16 09:46:17;;;;;;;27.17;24.77;;;20.20;99.90;;;;;;5032306;28;20487;-68
2021/07/16 09:48:44;;;;;;;24.50;22.83;;;20.10;99.90;;;;;;5032001;28;20503;-68
2021/07/16 09:51:13;;;;;;;25.03;23.40;;;20.00;99.90;;;;;;5032005;28;20495;-68
2021/07/16 09:53:44;;;;;;;24.40;22.30;;;20.00;99.90;;;;;;5031969;28;20567;-68
2021/07/16 09:56:13;;;;;;;24.50;22.80;;;20.30;99.90;;;;;;5032043;28;20456;-67
2021/07/16 09:58:40;;;;;;;22.77;21.00;;;20.60;99.90;;;;;;5031923;28;20437;-68
2021/07/16 10:01:07;;;;;;;22.33;20.93;;;20.90;99.90;;;;;;5031162;28;20954;-68
2021/07/16 10:03:36;;;;;;;23.70;22.17;;;21.30;99.90;;;;;;5031948;28;20478;-69
2021/07/16 10:06:03;;;;;;;25.63;23.83;;;21.80;99.90;;;;;;5031903;28;20796;-68
2021/07/16 10:08:33;;;;;;;24.37;22.67;;;22.20;99.90;;;;;;5031884;28;20861;-68
2021/07/16 10:11:03;;;;;;;23.90;22.07;;;22.40;99.90;;;;;;5031736;28;20469;-68
2021/07/16 10:13:33;;;;;;;25.27;23.67;;;23.20;99.90;;;;;;5031972;28;20522;-68
2021/07/16 10:16:01;;;;;;;24.17;22.63;;;23.00;99.90;;;;;;5031638;28;20973;-68
2021/07/16 10:18:28;;;;;;;25.00;23.23;;;22.70;99.90;;;;;;5031704;28;20449;-68
2021/07/16 10:20:55;;;;;;;25.03;23.03;;;22.80;99.90;;;;;;5031582;28;20503;-68
2021/07/16 10:23:23;;;;;;;26.00;24.23;;;22.90;99.90;;;;;;5031229;28;20850;-68
2021/07/16 10:25:51;;;;;;;26.00;23.97;;;22.90;99.90;;;;;;5031667;28;20445;-68
2021/07/16 10:28:41;;;;;;;25.83;23.37;;;22.80;99.90;;;;;;5031469;28;20472;-68
2021/07/16 10:31:43;;;;;;;28.37;26.20;;;23.20;99.90;;;;;;5031406;28;20511;-68
2021/07/16 10:34:34;;;;;;;25.33;23.73;;;23.80;99.90;;;;;;5031535;28;21006;-68
2021/07/16 10:37:03;;;;;;;27.67;25.70;;;23.50;99.90;;;;;;5031594;28;20570;-68
2021/07/16 10:39:50;;;;;;;26.17;24.40;;;23.40;99.90;;;;;;5031281;28;20542;-68
2021/07/16 10:42:46;;;;;;;23.93;22.43;;;23.40;99.90;;;;;;5031145;28;20587;-68
2021/07/16 10:45:26;;;;;;;25.57;24.00;;;23.50;99.90;;;;;;4985996;28;20449;-68
2021/07/16 10:47:54;;;;;;;24.30;22.80;;;23.50;99.90;;;;;;5031296;28;20441;-68
2021/07/16 10:50:36;;;;;;;26.50;24.83;;;23.40;99.90;;;;;;5031307;28;20460;-68
2021/07/16 10:53:04;;;;;;;25.60;23.60;;;23.80;99.90;;;;;;5031087;28;20825;-68
2021/07/16 10:56:01;;;;;;;24.90;23.00;;;24.10;99.90;;;;;;5031261;28;20489;-68
2021/07/16 10:58:30;;;;;;;24.17;22.73;;;24.70;99.30;;;;;;5031338;28;20495;-68
2021/07/16 11:00:59;;;;;;;26.50;24.87;;;24.90;97.80;;;;;;5031168;28;20457;-68
2021/07/16 11:03:39;;;;;;;25.80;24.30;;;24.80;97.80;;;;;;5030905;28;20481;-68
2021/07/16 11:06:06;;;;;;;28.20;26.30;;;25.50;97.00;;;;;;5031172;28;20444;-68
2021/07/16 11:08:57;;;;;;;26.57;24.87;;;25.70;96.60;;;;;;5031158;28;20448;-68
2021/07/16 11:11:35;;;;;;;26.27;24.83;;;25.80;94.50;;;;;;5032026;28;20440;-68
2021/07/16 11:14:03;;;;;;;27.37;25.60;;;26.00;93.50;;;;;;5034982;28;20873;-68
2021/07/16 11:16:43;;;;;;;27.63;26.00;;;25.90;92.80;;;;;;5034936;28;20445;-68
2021/07/16 11:19:25;;;;;;;27.77;25.83;;;25.00;94.00;;;;;;5034936;28;20464;-68
2021/07/16 11:22:04;;;;;;;27.87;25.87;;;24.80;96.90;;;;;;5034631;28;20449;-68
2021/07/16 11:24:33;;;;;;;26.90;25.10;;;25.20;96.30;;;;;;5034847;28;20444;-68
2021/07/16 11:27:09;;;;;;;28.13;26.03;;;25.40;95.50;;;;;;5034867;28;20453;-68
2021/07/16 11:29:39;;;;;;;28.70;26.93;;;24.90;94.50;;;;;;5034501;28;20487;-68
2021/07/16 11:32:10;;;;;;;28.40;26.37;;;25.00;93.90;;;;;;5034529;28;20814;-68
2021/07/16 11:34:38;;;;;;;26.23;24.73;;;25.90;93.10;;;;;;5034815;28;20484;-68
2021/07/16 11:37:05;;;;;;;28.00;26.07;;;27.20;90.40;;;;;;5034639;28;20445;-68
2021/07/16 11:39:34;;;;;;;26.47;25.03;;;27.30;86.50;;;;;;5034598;28;20982;-68
2021/07/16 11:42:02;;;;;;;26.53;24.80;;;26.30;85.40;;;;;;5034335;28;20945;-68
2021/07/16 11:44:30;;;;;;;25.23;23.57;;;25.00;91.50;;;;;;5034397;28;20447;-68
2021/07/16 11:46:57;;;;;;;26.37;24.40;;;24.40;94.10;;;;;;5034500;28;20444;-67
2021/07/16 11:49:27;;;;;;;25.67;23.37;;;23.90;96.70;;;;;;5034368;28;20824;-68
2021/07/16 11:51:58;;;;;;;26.20;24.33;;;23.40;97.10;;;;;;5034252;28;20453;-68
2021/07/16 11:54:26;;;;;;;28.07;25.93;;;23.30;97.80;;;;;;5034326;28;20512;-67
2021/07/16 11:56:55;;;;;;;26.00;24.37;;;23.30;98.50;;;;;;5034604;28;20449;-67
2021/07/16 11:59:22;;;;;;;23.77;22.20;;;23.00;98.70;;;;;;5034042;28;20497;-68
2021/07/16 12:02:08;;;;;;;25.97;24.30;;;23.00;99.80;;;;;;5034086;28;20811;-67
2021/07/16 12:04:36;;;;;;;24.80;23.20;;;23.30;99.30;;;;;;5034288;28;20476;-68
2021/07/16 12:07:04;;;;;;;26.00;24.00;;;23.30;97.80;;;;;;5034095;28;20448;-67
2021/07/16 12:09:32;;;;;;;25.43;23.50;;;23.20;99.00;;;;;;5033833;28;20464;-68
2021/07/16 12:12:04;;;;;;;24.67;22.50;;;23.40;99.30;;;;;;5033803;28;20441;-67
2021/07/16 12:14:47;;;;;;;26.53;24.23;;;22.90;99.90;;;;;;5033803;28;20527;-67
2021/07/16 12:17:14;;;;;;;26.67;24.83;;;22.70;99.90;;;;;;5033890;28;20441;-68
2021/07/16 12:19:42;;;;;;;26.07;24.07;;;23.00;99.90;;;;;;5033716;28;20469;-67
2021/07/16 12:22:09;;;;;;;25.40;22.87;;;23.00;99.90;;;;;;5033613;28;20448;-68
2021/07/16 12:24:36;;;;;;;24.83;22.97;;;23.30;99.90;;;;;;5033167;28;20437;-68
2021/07/16 12:27:06;;;;;;;25.13;23.30;;;23.70;99.60;;;;;;5033637;28;20536;-68
2021/07/16 12:29:33;;;;;;;24.13;22.07;;;23.60;99.10;;;;;;5033897;28;20483;-69
2021/07/16 12:32:00;;;;;;;24.47;22.70;;;23.60;99.60;;;;;;5033332;28;20832;-69
2021/07/16 12:34:28;;;;;;;24.17;22.47;;;23.60;99.40;;;;;;5033411;28;21005;-67